Hovedside
METAR-TAF:

METAR-TAF

Lufthavner :

Andøya, Norge

Andøya lufthavn. Andenes

breddegrad: 69-18N, lengdegrad: 016-09E, høyde over havet: 1 m

Gjeldene værobservasjon

Denne rapporten ble laget for 11 minutter siden, klokken 08:20 UTC
Vind 12 kt fra Sør-sørvest
Temperatur -4°C
Luftfuktighet 74%
Trykk 1009 hPa
Sikt 10 km eller mer
Brutte skyer i en høyde av 3100 ft

METAR: ENAN 220820Z 20012KT 9999 BKN031 M04/M08 Q1009

Tid: 09:31 (08:31 UTC)

Varsel

Varsel gyldig fra 22. klokken 06 UTC til 23. klokken 06 UTC
Vind 12 kt fra Sør
Sikt 10 km eller mer
Få skyer i en høyde av 1000 ft
Brutte skyer i en høyde av 3000 ft
Midlertidig
fra 22. klokken 06 UTC til 22. klokken 15 UTC
Sikt: 2000 m
i en høyde av 1200 ft
snøbyger

TAF: ENAN 2206/2306 18012KT 9999 FEW010 BKN030 TEMPO 2206/2215 2000 SHSN VV012

Værobservasjoner og værvarsel for over 4000 flyplasser (METAR- og TAF-rapporter).

Tilgjengelige stasjoner er representert av de røde og gule prikkene på kartet.

Hold musepekeren over prikken for å se navnet på stasjonen.

Klikk så for å se værobservasjoner og -varsler.

For å forandre kartet kan du klikke på den grønne knappen med svart kryss for å zoome inn, på den grønne knappen med strek for å zoome ut, eller på de grønne pilene for å se tilstøtende kart.


METAR-TAF: